Time;durP1;ratioP1;P1;durP2;ratioP2;P2;SDS_P1;SDS_P2;PMS_P1;PMS_P2;Temp;Humidity;BMP_temperature;BMP_pressure;BME280_temperature;BME280_humidity;BME280_pressure;Samples;Min_cycle;Max_cycle;Signal;HPM_P1;HPM_P2
2022/05/30 00:01:13;;;;;;;5.22;2.15;;;;;;;12.43;81.01;99262.25;4480422;32;35794;-78
2022/05/30 00:04:00;;;;;;;4.97;2.08;;;;;;;12.74;79.64;99259.16;4467835;32;33960;-78
2022/05/30 00:06:47;;;;;;;5.37;1.77;;;;;;;12.70;79.18;99254.66;4479688;32;34601;-78
2022/05/30 00:09:34;;;;;;;2.45;1.55;;;;;;;12.78;79.75;99248.31;4480324;32;34742;-77
2022/05/30 00:12:20;;;;;;;6.00;2.25;;;;;;;12.92;78.48;99259.84;4468491;32;34499;-77
2022/05/30 00:15:09;;;;;;;5.00;1.90;;;;;;;12.95;78.20;99263.84;4478447;32;34244;-78
2022/05/30 00:17:56;;;;;;;3.87;2.05;;;;;;;12.94;78.51;99252.03;4465932;32;35489;-78
2022/05/30 00:20:45;;;;;;;5.35;2.30;;;;;;;11.95;83.98;99243.44;4478584;32;35555;-78
2022/05/30 00:23:31;;;;;;;3.62;2.20;;;;;;;12.04;84.12;99239.53;4467734;32;34949;-77
2022/05/30 00:26:18;;;;;;;4.80;2.03;;;;;;;11.74;85.45;99230.41;4466485;32;33648;-77
2022/05/30 00:29:07;;;;;;;5.00;2.45;;;;;;;12.34;83.57;99245.03;4479548;32;34629;-77
2022/05/30 00:31:54;;;;;;;3.40;1.95;;;;;;;12.49;81.21;99235.41;4480196;32;35973;-78
2022/05/30 00:34:41;;;;;;;5.97;2.70;;;;;;;12.71;80.82;99235.06;4480187;32;34593;-77
2022/05/30 00:37:28;;;;;;;4.70;2.60;;;;;;;12.23;83.28;99225.38;4480262;32;34696;-77
2022/05/30 00:40:14;;;;;;;4.65;2.60;;;;;;;11.15;89.66;99217.31;4467434;32;34826;-77
2022/05/30 00:43:20;;;;;;;4.45;2.33;;;;;;;10.66;93.17;99213.19;4455581;32;34933;-77
2022/05/30 00:46:12;;;;;;;4.93;2.58;;;;;;;10.42;95.36;99216.37;4477193;31;35477;-77
2022/05/30 00:49:07;;;;;;;3.33;2.30;;;;;;;11.04;93.13;99207.81;4479988;32;34791;-77
2022/05/30 00:51:55;;;;;;;6.70;2.70;;;;;;;10.88;94.29;99202.06;4457107;32;35454;-77
2022/05/30 00:54:47;;;;;;;6.47;2.62;;;;;;;11.42;89.97;99193.41;4467446;32;34446;-77
2022/05/30 00:57:35;;;;;;;;;;;;;;;11.46;89.79;99199.84;4466395;32;34847;-78
2022/05/30 01:00:25;;;;;;;6.53;2.78;;;;;;;11.43;90.86;99195.00;4466761;31;35193;-78
2022/05/30 01:06:31;;;;;;;5.45;3.00;;;;;;;10.60;94.34;99195.28;4481626;32;34737;-75
2022/05/30 01:09:31;;;;;;;6.15;3.17;;;;;;;10.82;93.08;99195.13;4471105;32;35484;-75
2022/05/30 01:12:18;;;;;;;5.00;2.78;;;;;;;11.00;93.57;99204.94;4479264;32;34873;-75
2022/05/30 01:15:13;;;;;;;5.18;2.80;;;;;;;10.33;95.30;99203.47;4469602;32;34548;-75
2022/05/30 01:18:12;;;;;;;5.80;2.87;;;;;;;10.39;97.34;99203.31;4467600;31;34604;-75
2022/05/30 01:21:38;;;;;;;6.87;3.15;;;;;;;10.86;93.73;99187.06;4469880;32;34547;-74
2022/05/30 01:24:37;;;;;;;7.05;3.20;;;;;;;10.61;95.33;99185.94;4451525;32;34063;-75
2022/05/30 01:27:33;;;;;;;6.50;3.72;;;;;;;10.37;98.11;99187.22;4480382;32;34550;-74
2022/05/30 01:30:19;;;;;;;6.93;2.97;;;;;;;10.21;97.43;99184.09;4469752;32;36177;-75
2022/05/30 01:33:07;;;;;;;5.70;2.80;;;;;;;10.06;97.80;99173.59;4480026;31;34754;-74
2022/05/30 01:35:54;;;;;;;4.55;3.05;;;;;;;10.28;96.85;99161.75;4469197;32;34141;-75
2022/05/30 01:38:40;;;;;;;4.35;2.58;;;;;;;10.03;96.98;99171.50;4469627;32;35251;-75
2022/05/30 01:41:28;;;;;;;6.80;3.12;;;;;;;10.15;96.81;99160.72;4468155;32;34511;-75
2022/05/30 01:44:14;;;;;;;6.40;3.08;;;;;;;10.28;95.85;99169.97;4481608;32;34579;-75
2022/05/30 01:47:02;;;;;;;5.72;3.00;;;;;;;10.33;96.25;99176.09;4458615;31;34112;-75
2022/05/30 01:49:48;;;;;;;5.12;3.25;;;;;;;11.05;92.86;99171.06;4479544;31;35422;-75
2022/05/30 01:52:36;;;;;;;6.87;2.75;;;;;;;10.78;92.78;99170.28;4481483;32;36009;-75
2022/05/30 01:55:23;;;;;;;6.82;3.20;;;;;;;11.07;91.68;99177.03;4481554;32;34747;-74
2022/05/30 01:58:10;;;;;;;6.60;3.40;;;;;;;10.50;94.46;99169.00;4468358;32;36737;-75
2022/05/30 02:01:14;;;;;;;5.90;2.87;;;;;;;10.30;95.56;99167.69;4481358;32;35197;-74
2022/05/30 02:04:03;;;;;;;5.22;2.83;;;;;;;10.05;97.31;99172.00;4480413;31;35880;-75
2022/05/30 02:06:50;;;;;;;6.18;2.90;;;;;;;10.03;100.00;99177.78;4481667;32;34779;-74
2022/05/30 02:09:37;;;;;;;8.30;2.95;;;;;;;10.01;99.29;99180.00;4468101;32;33817;-75
2022/05/30 02:12:24;;;;;;;9.00;3.12;;;;;;;10.25;99.37;99185.06;4473976;31;34506;-75
2022/05/30 02:15:12;;;;;;;7.07;3.37;;;;;;;10.49;97.30;99172.88;4474887;31;36059;-75
2022/05/30 02:18:00;;;;;;;4.90;2.80;;;;;;;9.93;100.00;99178.06;4463854;32;35130;-75
2022/05/30 02:20:48;;;;;;;9.93;3.50;;;;;;;10.23;98.00;99184.56;4480556;31;34264;-75
2022/05/30 02:23:35;;;;;;;5.50;3.10;;;;;;;10.29;99.03;99191.53;4467835;31;34169;-75
2022/05/30 02:26:21;;;;;;;5.72;3.00;;;;;;;10.17;97.88;99193.28;4481167;32;34949;-75
2022/05/30 02:29:10;;;;;;;7.65;3.10;;;;;;;10.14;98.83;99189.25;4478978;31;34233;-75
2022/05/30 02:32:00;;;;;;;7.10;3.28;;;;;;;10.43;96.02;99188.66;4481194;32;34997;-75
2022/05/30 02:37:52;;;;;;;5.47;2.97;;;;;;;10.54;95.17;99191.91;4481554;32;34095;-75
2022/05/30 02:40:42;;;;;;;7.03;3.25;;;;;;;10.21;97.77;99191.50;4480784;32;34221;-75
2022/05/30 02:43:30;;;;;;;6.35;3.35;;;;;;;10.34;96.86;99199.59;4478434;31;33753;-75
2022/05/30 02:46:17;;;;;;;6.25;3.17;;;;;;;10.47;95.99;99191.56;4481296;32;35499;-75
2022/05/30 02:49:05;;;;;;;4.43;2.97;;;;;;;10.51;96.25;99207.03;4468868;32;35666;-75
2022/05/30 02:51:52;;;;;;;6.22;3.10;;;;;;;10.98;93.84;99203.66;4468772;32;34795;-75
2022/05/30 02:54:39;;;;;;;5.95;3.10;;;;;;;11.26;91.80;99215.84;4468027;32;34311;-75
2022/05/30 02:57:26;;;;;;;8.27;2.70;;;;;;;11.55;89.68;99214.34;4480262;31;35489;-75
2022/05/30 03:00:14;;;;;;;6.15;3.20;;;;;;;10.44;94.01;99219.59;4467163;32;34892;-75
2022/05/30 03:03:02;;;;;;;5.22;2.95;;;;;;;10.60;95.49;99225.41;4481258;32;33491;-75
2022/05/30 03:05:54;;;;;;;5.62;2.75;;;;;;;10.43;96.50;99223.47;4481064;32;33705;-75
2022/05/30 03:08:41;;;;;;;6.72;3.47;;;;;;;10.37;95.86;99225.56;4478519;31;34273;-75
2022/05/30 03:11:34;;;;;;;6.32;3.00;;;;;;;10.13;98.86;99220.47;4468783;32;35938;-75
2022/05/30 03:14:20;;;;;;;5.80;3.25;;;;;;;10.07;99.04;99224.47;4468709;32;34129;-76
2022/05/30 03:17:07;;;;;;;6.03;2.87;;;;;;;10.13;98.85;99220.47;4479584;31;34091;-75
2022/05/30 03:19:53;;;;;;;6.25;3.20;;;;;;;10.67;95.42;99229.31;4480009;32;35327;-75
2022/05/30 03:22:39;;;;;;;7.12;3.33;;;;;;;10.20;97.09;99231.75;4467559;31;34908;-75
2022/05/30 03:25:29;;;;;;;7.15;3.15;;;;;;;9.99;99.75;99228.81;4480294;32;34331;-75
2022/05/30 03:28:18;;;;;;;6.10;3.17;;;;;;;10.52;95.71;99240.72;4478188;32;34270;-76
2022/05/30 03:31:09;;;;;;;6.12;2.97;;;;;;;10.93;94.47;99240.25;4479451;31;35710;-76
2022/05/30 03:33:58;;;;;;;5.18;3.00;;;;;;;11.32;92.21;99243.91;4467659;32;36242;-75
2022/05/30 03:36:44;;;;;;;5.87;2.95;;;;;;;10.88;92.41;99239.63;4479138;31;34594;-76
2022/05/30 03:39:33;;;;;;;4.70;2.83;;;;;;;10.57;96.01;99240.56;4480857;32;34052;-76
2022/05/30 03:42:21;;;;;;;4.57;2.87;;;;;;;10.38;96.25;99229.88;4480584;32;35625;-75
2022/05/30 03:45:10;;;;;;;5.22;2.90;;;;;;;10.76;93.84;99227.38;4480298;31;34980;-74
2022/05/30 03:47:58;;;;;;;5.78;2.80;;;;;;;11.37;90.96;99237.47;4465428;32;34311;-74
2022/05/30 03:50:47;;;;;;;5.57;3.03;;;;;;;11.07;92.31;99229.13;4479720;32;35238;-74
2022/05/30 03:53:35;;;;;;;5.65;2.60;;;;;;;11.23;91.21;99232.16;4479505;31;35547;-74
2022/05/30 03:56:23;;;;;;;6.87;2.85;;;;;;;11.30;90.93;99239.87;4480577;32;34975;-74
2022/05/30 03:59:10;;;;;;;5.12;2.97;;;;;;;11.06;91.95;99230.25;4458588;31;34527;-74
2022/05/30 04:01:57;;;;;;;6.62;2.95;;;;;;;11.69;89.45;99227.84;4478391;32;34867;-74
2022/05/30 04:04:50;;;;;;;5.75;2.80;;;;;;;11.58;86.87;99230.13;4478720;31;35236;-74
2022/05/30 04:07:36;;;;;;;4.43;2.70;;;;;;;10.67;94.04;99239.44;4478206;31;34971;-74
2022/05/30 04:10:25;;;;;;;5.72;2.80;;;;;;;10.98;92.65;99240.09;4465095;31;35665;-74
2022/05/30 04:13:13;;;;;;;4.30;2.65;;;;;;;11.21;92.16;99234.41;4462347;31;33859;-75
2022/05/30 04:16:10;;;;;;;7.25;2.90;;;;;;;11.46;89.60;99228.06;4474019;31;34666;-74
2022/05/30 04:18:57;;;;;;;6.75;3.83;;;;;;;11.23;90.21;99232.16;4465930;31;34639;-75
2022/05/30 04:21:43;;;;;;;7.20;3.15;;;;;;;11.34;89.84;99244.41;4467362;32;35296;-74
2022/05/30 04:24:32;;;;;;;6.50;3.00;;;;;;;11.51;91.54;99245.50;4478279;31;34107;-74
2022/05/30 04:27:20;;;;;;;5.45;2.90;;;;;;;11.54;90.71;99244.84;4461089;31;35476;-74
2022/05/30 04:30:09;;;;;;;5.93;2.78;;;;;;;11.59;90.12;99247.44;4477851;31;34625;-73
2022/05/30 04:32:57;;;;;;;7.05;3.08;;;;;;;11.63;88.01;99245.63;4467846;32;34426;-74
2022/05/30 04:35:49;;;;;;;5.75;2.60;;;;;;;11.38;89.21;99252.78;4479150;32;34770;-74
2022/05/30 04:38:38;;;;;;;5.97;2.67;;;;;;;10.95;89.04;99256.38;4467281;32;34565;-74
2022/05/30 04:41:34;;;;;;;4.30;2.58;;;;;;;11.00;91.96;99258.97;4467151;31;34857;-74
2022/05/30 04:44:26;;;;;;;3.28;2.47;;;;;;;12.10;87.34;99262.94;4479029;32;35586;-74
2022/05/30 04:47:15;;;;;;;5.35;2.45;;;;;;;12.16;85.99;99260.81;4468227;32;34225;-74
2022/05/30 04:50:09;;;;;;;5.72;2.53;;;;;;;11.58;87.31;99262.25;4468272;32;34259;-74
2022/05/30 04:52:56;;;;;;;5.60;2.50;;;;;;;11.63;86.27;99271.13;4467497;32;35921;-74
2022/05/30 04:55:45;;;;;;;4.82;2.65;;;;;;;11.97;85.79;99263.16;4468126;32;35485;-74
2022/05/30 04:58:36;;;;;;;4.10;2.30;;;;;;;11.91;84.66;99270.75;4477448;31;34213;-74
2022/05/30 05:01:30;;;;;;;5.68;2.65;;;;;;;11.96;84.79;99265.09;4479546;32;34262;-75
2022/05/30 05:04:16;;;;;;;5.10;2.50;;;;;;;11.79;84.83;99262.37;4479669;32;35076;-74
2022/05/30 05:07:08;;;;;;;5.20;2.65;;;;;;;11.83;82.90;99271.56;4479681;32;34705;-72
2022/05/30 05:10:04;;;;;;;5.57;2.80;;;;;;;11.57;85.22;99288.09;4479671;32;33960;-75
2022/05/30 05:12:53;;;;;;;3.87;2.20;;;;;;;11.23;88.12;99285.06;4478322;31;35154;-75
2022/05/30 05:15:43;;;;;;;5.20;2.50;;;;;;;11.65;86.76;99279.84;4456545;32;34922;-74
2022/05/30 05:18:31;;;;;;;4.62;2.15;;;;;;;11.96;84.57;99281.56;4446973;32;34555;-73
2022/05/30 05:21:20;;;;;;;5.10;2.50;;;;;;;11.63;86.49;99287.59;4436446;32;34699;-74
2022/05/30 05:24:16;;;;;;;4.10;2.65;;;;;;;12.02;84.88;99287.69;4444155;32;34659;-74
2022/05/30 05:27:05;;;;;;;6.47;2.60;;;;;;;11.97;85.09;99299.63;4462642;32;35701;-74
2022/05/30 05:29:55;;;;;;;6.35;2.60;;;;;;;11.63;86.39;99293.09;4446116;32;34622;-73
2022/05/30 05:32:46;;;;;;;6.72;2.62;;;;;;;12.30;83.66;99304.53;4434250;32;34083;-74
2022/05/30 05:35:42;;;;;;;5.10;2.55;;;;;;;11.81;86.05;99304.00;4447855;32;35474;-75
2022/05/30 05:38:29;;;;;;;5.72;2.45;;;;;;;12.20;83.93;99307.63;4443810;32;34993;-74
2022/05/30 05:41:17;;;;;;;5.72;2.53;;;;;;;12.34;81.13;99310.97;4451028;32;34838;-75
2022/05/30 05:44:05;;;;;;;5.47;2.40;;;;;;;11.99;84.17;99311.09;4440346;32;33969;-75
2022/05/30 05:47:00;;;;;;;5.68;2.60;;;;;;;11.90;85.01;99319.38;4446323;32;35068;-74
2022/05/30 05:49:49;;;;;;;4.70;2.37;;;;;;;12.38;80.78;99314.69;4436086;32;35905;-74
2022/05/30 05:52:37;;;;;;;3.70;2.30;;;;;;;12.62;81.20;99316.00;4449509;32;35197;-74
2022/05/30 05:55:31;;;;;;;5.82;3.55;;;;;;;12.09;82.96;99324.47;4436637;32;34173;-75
2022/05/30 05:58:19;;;;;;;4.87;2.40;;;;;;;12.49;80.71;99328.81;4456385;32;34663;-75
2022/05/30 06:01:12;;;;;;;7.70;2.50;;;;;;;12.72;80.62;99334.84;4448588;32;35934;-75
2022/05/30 06:04:04;;;;;;;4.03;2.30;;;;;;;13.18;78.76;99331.13;4441974;32;35551;-75
2022/05/30 06:06:59;;;;;;;5.07;2.42;;;;;;;12.79;79.60;99329.63;4449860;32;35047;-75
2022/05/30 06:09:46;;;;;;;;;;;;;;;13.18;77.56;99338.59;4447138;32;34710;-76
2022/05/30 06:12:38;;;;;;;3.60;1.95;;;;;;;12.57;78.45;99330.72;4438056;32;34633;-77
2022/05/30 06:15:25;;;;;;;7.57;2.35;;;;;;;13.02;78.16;99333.69;4448959;32;35443;-76
2022/05/30 06:18:12;;;;;;;5.47;2.15;;;;;;;13.16;75.31;99336.16;4480982;32;33809;-77
2022/05/30 06:21:05;;;;;;;6.95;2.20;;;;;;;13.09;76.17;99340.59;4481182;32;34674;-77
2022/05/30 06:23:53;;;;;;;6.60;2.55;;;;;;;12.61;78.75;99337.19;4476452;32;35528;-76
2022/05/30 06:26:44;;;;;;;5.97;2.60;;;;;;;12.77;76.20;99343.69;4463234;32;34190;-77
2022/05/30 06:29:32;;;;;;;3.97;2.33;;;;;;;13.61;75.25;99351.22;4454899;32;34193;-77
2022/05/30 06:32:22;;;;;;;5.87;2.40;;;;;;;14.04;72.22;99345.25;4462920;32;35486;-77
2022/05/30 06:35:11;;;;;;;6.10;2.33;;;;;;;14.45;70.07;99343.47;4452284;32;34896;-78
2022/05/30 06:38:01;;;;;;;7.93;2.62;;;;;;;14.39;71.07;99342.06;4463689;32;35618;-77
2022/05/30 06:40:49;;;;;;;4.72;2.45;;;;;;;13.45;73.44;99346.31;4462723;32;34379;-77
2022/05/30 06:43:37;;;;;;;6.60;2.50;;;;;;;13.24;72.92;99349.06;4462470;32;33581;-77
2022/05/30 06:46:25;;;;;;;5.35;2.17;;;;;;;14.00;73.05;99362.78;4462319;32;35692;-78
2022/05/30 06:49:18;;;;;;;5.00;2.20;;;;;;;13.84;73.64;99355.19;4451196;32;34686;-77
2022/05/30 06:52:06;;;;;;;4.25;2.20;;;;;;;14.09;71.62;99355.25;4463317;32;33807;-78
2022/05/30 06:54:58;;;;;;;3.80;1.80;;;;;;;14.36;68.84;99360.09;4465262;32;35179;-76
2022/05/30 07:01:03;;;;;;;7.47;2.10;;;;;;;14.05;70.49;99357.06;4464151;32;34041;-78
2022/05/30 07:03:54;;;;;;;5.93;2.22;;;;;;;14.57;69.37;99361.97;4463281;32;34726;-78
2022/05/30 07:06:43;;;;;;;7.03;2.60;;;;;;;14.99;66.02;99353.47;4461950;32;34649;-78
2022/05/30 07:09:30;;;;;;;5.37;2.30;;;;;;;14.44;68.04;99352.09;4464628;32;34967;-78
2022/05/30 07:12:17;;;;;;;6.00;2.45;;;;;;;14.98;67.80;99351.84;4463037;32;34690;-79
2022/05/30 07:15:07;;;;;;;4.03;2.20;;;;;;;15.46;65.24;99358.41;4459846;32;33732;-77
2022/05/30 07:17:58;;;;;;;6.60;2.50;;;;;;;15.64;64.13;99356.94;4463537;32;34377;-79
2022/05/30 07:20:47;;;;;;;5.47;2.40;;;;;;;15.59;64.74;99359.97;4470338;32;35570;-79
2022/05/30 07:23:36;;;;;;;4.43;1.80;;;;;;;15.35;62.97;99354.53;4462174;32;34614;-78
2022/05/30 07:26:25;;;;;;;3.42;1.80;;;;;;;15.52;60.51;99354.25;4463763;32;34728;-79
2022/05/30 07:29:20;;;;;;;2.87;1.17;;;;;;;15.83;58.37;99341.72;4460019;32;34644;-78
2022/05/30 07:32:32;;;;;;;3.55;1.50;;;;;;;16.41;60.70;99356.66;4463189;32;35626;-78
2022/05/30 07:35:35;;;;;;;5.12;1.42;;;;;;;15.43;59.29;99357.16;4463761;32;35602;-78
2022/05/30 07:38:28;;;;;;;2.35;1.40;;;;;;;15.51;57.23;99356.22;4462419;32;35356;-77
2022/05/30 07:41:18;;;;;;;3.83;1.40;;;;;;;15.33;56.89;99357.62;4461907;32;34686;-78
2022/05/30 07:44:07;;;;;;;4.97;1.45;;;;;;;15.54;56.29;99351.94;4472373;32;34976;-79
2022/05/30 07:46:59;;;;;;;2.25;1.20;;;;;;;15.70;56.53;99358.34;4462105;32;34556;-78
2022/05/30 07:49:47;;;;;;;2.22;1.25;;;;;;;15.97;56.13;99344.87;4462928;32;34102;-78
2022/05/30 07:52:35;;;;;;;2.85;1.10;;;;;;;16.31;52.33;99342.59;4459230;32;35479;-78
2022/05/30 07:55:24;;;;;;;3.60;1.30;;;;;;;16.22;54.15;99358.50;4459481;32;35021;-79
2022/05/30 07:58:15;;;;;;;8.68;1.90;;;;;;;16.25;54.35;99355.88;4459185;32;34489;-79
2022/05/30 08:01:06;;;;;;;4.30;1.50;;;;;;;16.74;53.70;99349.16;4457233;32;33077;-78
2022/05/30 08:03:55;;;;;;;5.75;1.70;;;;;;;16.36;54.29;99356.94;4461852;32;34309;-79
2022/05/30 08:06:45;;;;;;;2.75;1.40;;;;;;;16.39;56.25;99352.63;4462198;32;34938;-79
2022/05/30 08:09:36;;;;;;;3.37;1.40;;;;;;;16.32;54.39;99355.22;4465627;32;34588;-77
2022/05/30 08:12:23;;;;;;;4.28;1.58;;;;;;;16.14;56.24;99363.88;4461799;32;34783;-78
2022/05/30 08:15:14;;;;;;;5.15;1.37;;;;;;;16.54;55.40;99364.88;4468200;32;34258;-79
2022/05/30 08:18:14;;;;;;;4.45;1.48;;;;;;;16.92;54.25;99361.47;4466826;32;34677;-79
2022/05/30 08:21:04;;;;;;;3.70;1.40;;;;;;;16.79;53.04;99359.94;4453554;32;34237;-79
2022/05/30 08:23:51;;;;;;;3.83;1.95;;;;;;;16.59;54.40;99368.19;4465343;32;34044;-78
2022/05/30 08:26:39;;;;;;;5.22;1.40;;;;;;;16.41;51.99;99369.69;4462381;32;35138;-79
2022/05/30 08:29:31;;;;;;;4.72;1.45;;;;;;;17.29;50.17;99374.94;4465575;32;34987;-79
2022/05/30 08:32:18;;;;;;;6.90;1.20;;;;;;;17.24;48.31;99387.09;4461860;32;34762;-79
2022/05/30 08:35:13;;;;;;;2.33;1.10;;;;;;;17.36;51.32;99388.12;4459130;32;34435;-80
2022/05/30 08:38:01;;;;;;;4.80;1.05;;;;;;;17.65;49.79;99372.94;4461637;32;34376;-78
2022/05/30 08:44:02;;;;;;;4.03;1.85;;;;;;;17.66;47.83;99357.91;4461527;32;34716;-80
2022/05/30 08:47:29;;;;;;;4.28;1.75;;;;;;;18.49;45.83;99343.59;4454813;32;34818;-79
2022/05/30 08:50:35;;;;;;;5.00;1.20;;;;;;;18.40;46.46;99347.41;4461111;32;35504;-79
2022/05/30 08:53:41;;;;;;;3.45;1.17;;;;;;;18.11;46.29;99361.97;4462628;32;35996;-78
2022/05/30 08:56:30;;;;;;;3.78;1.23;;;;;;;17.58;46.78;99370.00;4460857;32;34622;-79
2022/05/30 08:59:54;;;;;;;2.83;1.10;;;;;;;18.02;48.30;99376.06;4462995;32;34086;-79
2022/05/30 09:05:59;;;;;;;2.97;1.30;;;;;;;18.11;48.75;99378.59;4463197;32;34773;-78
2022/05/30 09:08:58;;;;;;;3.45;1.40;;;;;;;17.13;48.93;99390.78;4470481;32;34679;-79
2022/05/30 09:12:04;;;;;;;3.60;1.20;;;;;;;18.19;48.15;99391.41;4450885;32;33949;-80
2022/05/30 09:15:00;;;;;;;5.68;1.37;;;;;;;19.15;46.13;99381.09;4462216;32;35141;-79
2022/05/30 09:18:04;;;;;;;2.30;1.30;;;;;;;18.32;46.61;99397.56;4461411;32;34675;-79
2022/05/30 09:20:54;;;;;;;5.37;1.23;;;;;;;17.66;47.29;99388.38;4460073;32;34102;-79
2022/05/30 09:23:42;;;;;;;4.62;1.60;;;;;;;17.46;48.67;99395.88;4460900;32;34857;-79
2022/05/30 09:26:40;;;;;;;2.92;1.10;;;;;;;17.20;47.97;99394.53;4460574;32;34645;-79
2022/05/30 09:29:35;;;;;;;4.12;0.90;;;;;;;17.97;48.23;99398.53;4464902;32;34942;-79
2022/05/30 09:33:07;;;;;;;6.68;1.50;;;;;;;17.75;47.62;99397.25;4463127;32;35505;-80
2022/05/30 09:36:15;;;;;;;4.05;1.10;;;;;;;17.75;47.22;99394.50;4418235;32;33780;-79
2022/05/30 09:39:19;;;;;;;3.40;1.20;;;;;;;17.16;48.46;99381.75;4464697;32;34357;-78
2022/05/30 09:42:47;;;;;;;3.87;1.30;;;;;;;17.58;46.20;99389.38;4461337;32;34601;-78
2022/05/30 09:45:35;;;;;;;5.28;1.30;;;;;;;17.20;47.62;99390.97;4460823;32;33356;-79
2022/05/30 09:48:25;;;;;;;4.03;1.35;;;;;;;17.34;48.52;99402.34;4461284;32;33023;-80
2022/05/30 09:51:41;;;;;;;2.50;1.15;;;;;;;17.90;47.52;99410.28;4461516;32;35407;-79
2022/05/30 09:54:37;;;;;;;7.22;1.20;;;;;;;18.15;46.14;99418.25;4458888;32;35909;-79
2022/05/30 09:57:34;;;;;;;4.72;1.17;;;;;;;17.68;47.01;99416.53;4463268;32;35487;-78
2022/05/30 10:00:37;;;;;;;2.60;1.08;;;;;;;18.38;46.17;99415.50;4462594;32;34107;-78
2022/05/30 10:03:28;;;;;;;3.75;0.95;;;;;;;18.17;45.18;99416.72;4457592;32;35531;-78
2022/05/30 10:06:25;;;;;;;2.83;1.08;;;;;;;18.13;45.35;99421.41;4463725;32;35930;-79
2022/05/30 10:09:18;;;;;;;4.85;1.20;;;;;;;17.58;46.16;99417.09;4464413;32;34374;-77
2022/05/30 10:12:05;;;;;;;4.03;1.27;;;;;;;17.85;47.27;99427.19;4463865;32;33738;-79
2022/05/30 10:14:54;;;;;;;6.53;1.20;;;;;;;17.75;46.54;99411.12;4465308;32;34652;-79
2022/05/30 10:17:41;;;;;;;2.37;1.00;;;;;;;17.90;45.49;99406.69;4452436;32;34650;-79
2022/05/30 10:20:55;;;;;;;3.58;1.10;;;;;;;17.58;46.33;99412.34;4461038;32;35484;-79
2022/05/30 10:31:09;;;;;;;5.22;1.30;;;;;;;17.11;47.51;99418.03;4454034;32;35004;-78
2022/05/30 10:34:14;;;;;;;8.02;1.25;;;;;;;17.58;45.64;99415.13;4463772;32;35682;-78
2022/05/30 10:37:19;;;;;;;3.15;1.08;;;;;;;17.80;44.95;99421.94;4459846;32;35276;-79
2022/05/30 10:40:15;;;;;;;2.55;1.30;;;;;;;17.82;45.75;99429.91;4461532;32;35884;-79
2022/05/30 10:43:04;;;;;;;2.55;0.93;;;;;;;17.81;45.16;99425.50;4463585;32;35056;-79
2022/05/30 10:46:04;;;;;;;2.03;0.90;;;;;;;18.04;45.83;99433.88;4452241;32;35495;-78
2022/05/30 10:48:59;;;;;;;3.42;1.30;;;;;;;16.92;46.98;99436.16;4460669;32;34237;-77
2022/05/30 10:52:04;;;;;;;5.12;1.20;;;;;;;17.19;46.86;99428.09;4463062;32;35208;-77
2022/05/30 10:54:56;;;;;;;3.37;1.20;;;;;;;18.22;44.51;99426.72;4461163;32;36031;-76
2022/05/30 10:58:08;;;;;;;2.62;0.95;;;;;;;17.79;45.37;99423.13;4462402;32;34684;-76
2022/05/30 11:04:36;;;;;;;1.70;0.93;;;;;;;17.71;46.61;99427.69;4468245;32;34174;-77
2022/05/30 11:07:32;;;;;;;2.78;1.10;;;;;;;18.73;43.87;99432.00;4458261;32;33631;-76
2022/05/30 11:10:47;;;;;;;4.93;1.12;;;;;;;17.87;43.99;99447.03;4463504;32;34402;-77
2022/05/30 11:13:53;;;;;;;2.83;1.10;;;;;;;18.29;42.83;99446.25;4464161;32;34714;-77
2022/05/30 11:17:02;;;;;;;4.93;1.25;;;;;;;18.11;44.46;99453.44;4461050;32;35237;-77
2022/05/30 11:23:07;;;;;;;3.17;1.12;;;;;;;17.68;46.22;99461.66;4455438;32;34656;-78
2022/05/30 11:26:06;;;;;;;3.33;1.17;;;;;;;17.86;46.50;99464.03;4461094;32;34143;-76
2022/05/30 11:29:09;;;;;;;2.95;1.05;;;;;;;16.58;46.53;99477.19;4446814;32;35327;-78
2022/05/30 11:32:05;;;;;;;4.57;1.30;;;;;;;17.20;46.20;99462.94;4456866;32;35993;-78
2022/05/30 11:35:06;;;;;;;4.80;1.20;;;;;;;17.36;46.45;99457.34;4461124;32;35492;-77
2022/05/30 11:38:15;;;;;;;2.58;1.30;;;;;;;17.02;47.09;99462.53;4461895;32;34966;-77
2022/05/30 11:41:18;;;;;;;3.28;0.93;;;;;;;17.11;45.95;99454.03;4462787;32;34286;-77
2022/05/30 11:44:40;;;;;;;3.92;1.50;;;;;;;17.48;45.90;99443.41;4464255;32;35979;-78
2022/05/30 11:47:29;;;;;;;;;;;;;;;17.40;45.86;99450.75;4464815;32;34571;-78
2022/05/30 11:50:26;;;;;;;2.47;1.05;;;;;;;17.14;45.90;99445.00;4460195;32;34745;-78
2022/05/30 11:53:31;;;;;;;3.78;1.55;;;;;;;17.49;45.12;99443.03;4461313;32;34665;-77
2022/05/30 11:59:56;;;;;;;2.42;1.12;;;;;;;17.87;44.08;99447.03;4463805;32;34937;-78
2022/05/30 12:02:57;;;;;;;2.83;1.20;;;;;;;17.94;45.40;99461.03;4436617;32;34221;-78
2022/05/30 12:06:11;;;;;;;8.35;1.45;;;;;;;17.75;45.13;99455.44;4465543;32;34498;-77
2022/05/30 12:09:13;;;;;;;3.10;1.35;;;;;;;17.64;44.48;99452.44;4453403;32;34860;-78
2022/05/30 12:12:23;;;;;;;3.70;1.42;;;;;;;18.28;43.29;99450.22;4454738;32;35471;-79
2022/05/30 12:15:27;;;;;;;3.72;1.10;;;;;;;18.25;42.86;99448.19;4399135;32;1845823;-78
2022/05/30 12:25:34;;;;;;;2.08;1.10;;;;;;;17.74;45.30;99453.84;4454558;32;35466;-79
2022/05/30 12:28:31;;;;;;;2.95;0.90;;;;;;;17.95;44.88;99454.31;4463380;32;32841;-78
2022/05/30 12:31:36;;;;;;;4.80;1.20;;;;;;;17.56;45.37;99441.56;4462482;32;34759;-79
2022/05/30 12:35:10;;;;;;;3.00;1.10;;;;;;;18.62;43.39;99439.34;4451342;32;34448;-79
2022/05/30 12:38:08;;;;;;;3.85;1.00;;;;;;;18.73;42.75;99442.31;4462863;32;35740;-79
2022/05/30 12:41:20;;;;;;;2.53;1.20;;;;;;;18.97;42.92;99441.94;4462533;32;34988;-79
2022/05/30 12:44:45;;;;;;;4.78;1.30;;;;;;;17.38;46.10;99436.44;4462939;32;34283;-79
2022/05/30 12:47:36;;;;;;;3.22;0.80;;;;;;;17.82;46.56;99438.22;4450250;32;34821;-78
2022/05/30 12:50:31;;;;;;;2.22;1.05;;;;;;;18.03;44.83;99437.84;4459702;32;34563;-78
2022/05/30 12:53:20;;;;;;;5.53;1.30;;;;;;;19.12;44.49;99436.59;4464253;32;34171;-79
2022/05/30 12:56:10;;;;;;;2.43;0.93;;;;;;;19.50;42.54;99430.03;4463520;32;34689;-79
2022/05/30 12:59:03;;;;;;;4.55;1.00;;;;;;;19.31;42.07;99431.72;4462936;32;35987;-79
2022/05/30 13:01:57;;;;;;;2.78;1.00;;;;;;;19.90;41.74;99423.03;4462431;32;35505;-79
2022/05/30 13:04:52;;;;;;;2.67;0.75;;;;;;;19.99;42.45;99427.09;4465039;32;34040;-79
2022/05/30 13:07:40;;;;;;;3.90;1.25;;;;;;;18.68;44.10;99426.75;4454062;32;34596;-79
2022/05/30 13:10:41;;;;;;;2.35;1.00;;;;;;;17.83;44.49;99426.75;4465174;32;34626;-79
2022/05/30 13:13:34;;;;;;;2.08;1.40;;;;;;;17.94;45.91;99427.78;4464531;32;35467;-79
2022/05/30 13:19:28;;;;;;;4.07;1.20;;;;;;;19.06;43.04;99431.34;4464961;32;34078;-79
2022/05/30 13:22:33;;;;;;;3.53;1.42;;;;;;;19.43;43.51;99429.91;4465936;32;33846;-79
2022/05/30 13:25:30;;;;;;;3.30;1.30;;;;;;;19.12;42.65;99437.41;4464626;32;34493;-79
2022/05/30 13:28:22;;;;;;;4.15;1.35;;;;;;;18.29;43.56;99440.72;4464708;32;34194;-79
2022/05/30 13:31:12;;;;;;;4.50;1.10;;;;;;;18.12;45.40;99441.19;4452489;32;36212;-79
2022/05/30 13:34:11;;;;;;;4.28;1.08;;;;;;;19.10;45.32;99446.13;4463716;32;34577;-79
2022/05/30 13:37:01;;;;;;;4.35;1.10;;;;;;;18.39;45.49;99450.44;4465043;32;35700;-79
2022/05/30 13:39:49;;;;;;;1.92;0.98;;;;;;;17.86;45.88;99450.97;4464789;32;33951;-79
2022/05/30 13:42:57;;;;;;;1.75;1.05;;;;;;;18.85;44.91;99459.59;4464584;32;34477;-79
2022/05/30 13:46:12;;;;;;;3.00;0.98;;;;;;;19.51;43.56;99460.19;4464869;32;34559;-80
2022/05/30 13:49:31;;;;;;;2.67;0.98;;;;;;;19.29;44.85;99459.06;4463710;32;34431;-80
2022/05/30 13:52:24;;;;;;;3.22;1.20;;;;;;;19.79;42.95;99452.66;4462977;32;35018;-79
2022/05/30 13:55:24;;;;;;;5.50;1.15;;;;;;;19.08;43.72;99456.00;4463444;32;34635;-78
2022/05/30 13:58:11;;;;;;;4.07;1.10;;;;;;;18.93;43.93;99452.19;4470666;32;35024;-79
2022/05/30 14:01:06;;;;;;;1.50;1.10;;;;;;;18.21;45.64;99450.06;4465363;32;34624;-79
2022/05/30 14:04:02;;;;;;;3.10;1.35;;;;;;;17.71;47.70;99449.03;4461031;32;34965;-79
2022/05/30 14:07:08;;;;;;;3.67;1.12;;;;;;;17.64;46.56;99462.72;4463540;32;34249;-79
2022/05/30 14:09:58;;;;;;;6.25;2.40;;;;;;;18.02;47.82;99461.19;4462896;32;35795;-78
2022/05/30 14:12:56;;;;;;;5.62;2.65;;;;;;;18.16;54.65;99464.25;4461818;32;33242;-78
2022/05/30 14:15:55;;;;;;;6.28;2.45;;;;;;;18.07;58.75;99471.97;4463477;32;34148;-78
2022/05/30 14:25:29;;;;;;;5.28;1.70;;;;;;;17.74;59.02;99471.28;4450487;32;35077;-79
2022/05/30 14:28:24;;;;;;;5.70;2.80;;;;;;;18.78;56.64;99467.78;4450449;32;34951;-77